Terminal Aerodrome Forecast
Issued by NWS Pocatello, ID

Home | Current Version | Previous Version | Text Only | Print | Product List | Glossary On
Versions: 1 2 3 4 5 6 7 8 9 10 11 12 13 14 15 16 17 18 19
000
FTUS45 KPIH 201400 AAC
TAFIDA
TAF AMD
KIDA 201428Z 2014/2112 VRB06KT P6SM FEW070 BKN120
     FM201900 21012G22KT P6SM VCTS SCT060 BKN100CB
     FM210300 19010KT P6SM VCSH BKN080 OVC100=

USA.gov is the U.S. government's official web portal to all federal, state and local government web resources and services.